Terminal Aerodrome Forecast
Issued by NWS

Home | Current Version | Previous Version | Text Only | Print | Product List | Glossary On
Versions: 1 2 3 4 5 6 7 8 9 10 11 12 13 14 15 16 17
000
FTUS43 KOAX 160500
TAFBFF
TAF
KBFF 160520Z 1606/1706 10006KT P6SM SKC
     FM161500 32008KT P6SM SKC
     FM170100 10006KT P6SM SCT200=

USA.gov is the U.S. government's official web portal to all federal, state and local government web resources and services.